NCAR-RAP Real-Time Weather Data

Output produced by METARs form (16 August 2018  19:23 UTC)
found at http://weather.rap.ucar.edu/surface/
 
Conditions at: KSRQ observed 16 August 2018  18:53 UTC
Temperature: 32.2°C (90°F)
Dewpoint: 25.0°C (77°F) [RH = 66%]
Pressure (altimeter): 30.12 inches Hg (1020.1 mb)
[Sea-level pressure: 1020.0 mb]
Winds: from the SW (230 degrees) at 10 MPH (9 knots; 4.7 m/s)
Visibility: 10 or more miles (16+ km)
Ceiling: at least 12,000 feet AGL
Clouds: few clouds at 4800 feet AGL
Present Weather: no significant weather observed at this time
KSRQ 161853Z 23009KT 10SM FEW048 32/25 A3012 RMK AO2 SLP200 T03220250

Conditions at: KSRQ observed 16 August 2018  17:53 UTC
Temperature: 32.2°C (90°F)
Dewpoint: 24.4°C (76°F) [RH = 64%]
Pressure (altimeter): 30.13 inches Hg (1020.4 mb)
[Sea-level pressure: 1020.2 mb]
Winds: from the WSW (240 degrees) at 12 MPH (10 knots; 5.2 m/s)
Visibility: 10 or more miles (16+ km)
Ceiling: 4700 feet AGL
Clouds: scattered clouds at 4100 feet AGL
broken clouds at 4700 feet AGL
Present Weather: no significant weather observed at this time
KSRQ 161753Z 24010KT 10SM SCT041 BKN047 32/24 A3013 RMK AO2 SLP202 T03220244 10328 20250 58004

Conditions at: KSRQ observed 16 August 2018  16:53 UTC
Temperature: 31.7°C (89°F)
Dewpoint: 24.4°C (76°F) [RH = 65%]
Pressure (altimeter): 30.14 inches Hg (1020.7 mb)
[Sea-level pressure: 1020.5 mb]
Winds: from the SW (220 degrees) at 8 MPH (7 knots; 3.6 m/s)
Visibility: 10 or more miles (16+ km)
Ceiling: 4000 feet AGL
Clouds: broken clouds at 4000 feet AGL
broken clouds at 5000 feet AGL
Present Weather: no significant weather observed at this time
KSRQ 161653Z 22007KT 10SM BKN040 BKN050 32/24 A3014 RMK AO2 SLP205 T03170244

Conditions at: KSRQ observed 16 August 2018  15:53 UTC
Temperature: 31.1°C (88°F)
Dewpoint: 23.3°C (74°F) [RH = 63%]
Pressure (altimeter): 30.14 inches Hg (1020.7 mb)
[Sea-level pressure: 1020.7 mb]
Winds: from the SE (140 degrees) at 10 MPH (9 knots; 4.7 m/s)
Visibility: 10 or more miles (16+ km)
Ceiling: at least 12,000 feet AGL
Clouds: scattered clouds at 3600 feet AGL
scattered clouds at 5500 feet AGL
Present Weather: no significant weather observed at this time
KSRQ 161553Z 14009KT 10SM SCT036 SCT055 31/23 A3014 RMK AO2 SLP207 T03110233

Conditions at: KSRQ observed 16 August 2018  14:53 UTC
Temperature: 31.1°C (88°F)
Dewpoint: 25.0°C (77°F) [RH = 70%]
Pressure (altimeter): 30.14 inches Hg (1020.7 mb)
[Sea-level pressure: 1020.6 mb]
Winds: from the SSE (150 degrees) at 12 MPH (10 knots; 5.2 m/s)
Visibility: 10 or more miles (16+ km)
Ceiling: at least 12,000 feet AGL
Clouds: few clouds at 2300 feet AGL
Present Weather: no significant weather observed at this time
KSRQ 161453Z 15010KT 10SM FEW023 31/25 A3014 RMK AO2 SLP206 T03110250 53009

Conditions at: KSRQ observed 16 August 2018  13:53 UTC
Temperature: 28.9°C (84°F)
Dewpoint: 25.0°C (77°F) [RH = 80%]
Pressure (altimeter): 30.13 inches Hg (1020.4 mb)
[Sea-level pressure: 1020.3 mb]
Winds: from the ESE (120 degrees) at 9 MPH (8 knots; 4.2 m/s)
Visibility: 10 or more miles (16+ km)
Ceiling: at least 12,000 feet AGL
Clouds: sky clear below 12,000 feet AGL
Present Weather: no significant weather observed at this time
KSRQ 161353Z 12008KT 10SM CLR 29/25 A3013 RMK AO2 SLP203 T02890250

Conditions at: KSRQ observed 16 August 2018  12:53 UTC
Temperature: 27.2°C (81°F)
Dewpoint: 24.4°C (76°F) [RH = 85%]
Pressure (altimeter): 30.12 inches Hg (1020.1 mb)
[Sea-level pressure: 1019.8 mb]
Winds: from the ESE (110 degrees) at 10 MPH (9 knots; 4.7 m/s)
Visibility: 10 or more miles (16+ km)
Ceiling: at least 12,000 feet AGL
Clouds: sky clear below 12,000 feet AGL
Present Weather: no significant weather observed at this time
KSRQ 161253Z 11009KT 10SM CLR 27/24 A3012 RMK AO2 SLP198 T02720244

Conditions at: KSRQ observed 16 August 2018  11:53 UTC
Temperature: 25.0°C (77°F)
Dewpoint: 23.3°C (74°F) [RH = 90%]
Pressure (altimeter): 30.12 inches Hg (1020.1 mb)
[Sea-level pressure: 1019.7 mb]
Winds: from the ESE (120 degrees) at 5 MPH (4 knots; 2.1 m/s)
Visibility: 10 or more miles (16+ km)
Ceiling: at least 12,000 feet AGL
Clouds: sky clear below 12,000 feet AGL
Present Weather: no significant weather observed at this time
KSRQ 161153Z 12004KT 10SM CLR 25/23 A3012 RMK AO2 SLP197 T02500233 10250 20239 53017

Conditions at: KSRQ observed 16 August 2018  10:53 UTC
Temperature: 23.9°C (75°F)
Dewpoint: 22.8°C (73°F) [RH = 94%]
Pressure (altimeter): 30.09 inches Hg (1019.0 mb)
[Sea-level pressure: 1018.9 mb]
Winds: from the E (80 degrees) at 3 MPH (3 knots; 1.6 m/s)
Visibility: 10 or more miles (16+ km)
Ceiling: at least 12,000 feet AGL
Clouds: sky clear below 12,000 feet AGL
Present Weather: no significant weather observed at this time
KSRQ 161053Z 08003KT 10SM CLR 24/23 A3009 RMK AO2 SLP189 T02390228

Conditions at: KSRQ observed 16 August 2018  09:53 UTC
Temperature: 24.4°C (76°F)
Dewpoint: 22.8°C (73°F) [RH = 91%]
Pressure (altimeter): 30.08 inches Hg (1018.7 mb)
[Sea-level pressure: 1018.4 mb]
Winds: from the E (90 degrees) at 8 MPH (7 knots; 3.6 m/s)
Visibility: 10 or more miles (16+ km)
Ceiling: at least 12,000 feet AGL
Clouds: sky clear below 12,000 feet AGL
Present Weather: automated observation with no human augmentation;
there may or may not be significant weather present at this time
KSRQ 160953Z AUTO 09007KT 10SM CLR 24/23 A3008 RMK AO2 SLP184 T02440228

Conditions at: KSRQ observed 16 August 2018  08:53 UTC
Temperature: 23.9°C (75°F)
Dewpoint: 23.3°C (74°F) [RH = 96%]
Pressure (altimeter): 30.06 inches Hg (1018.0 mb)
[Sea-level pressure: 1017.9 mb]
Winds: from the E (90 degrees) at 6 MPH (5 knots; 2.6 m/s)
Visibility: 10 or more miles (16+ km)
Ceiling: at least 12,000 feet AGL
Clouds: sky clear below 12,000 feet AGL
Present Weather: automated observation with no human augmentation;
there may or may not be significant weather present at this time
KSRQ 160853Z AUTO 09005KT 10SM CLR 24/23 A3006 RMK AO2 SLP179 T02390233 56012

Conditions at: KSRQ observed 16 August 2018  07:53 UTC
Temperature: 24.4°C (76°F)
Dewpoint: 23.3°C (74°F) [RH = 94%]
Pressure (altimeter): 30.07 inches Hg (1018.4 mb)
[Sea-level pressure: 1018.2 mb]
Winds: from the ESE (110 degrees) at 6 MPH (5 knots; 2.6 m/s)
Visibility: 10 or more miles (16+ km)
Ceiling: at least 12,000 feet AGL
Clouds: sky clear below 12,000 feet AGL
Present Weather: automated observation with no human augmentation;
there may or may not be significant weather present at this time
KSRQ 160753Z AUTO 11005KT 10SM CLR 24/23 A3007 RMK AO2 SLP182 T02440233

Conditions at: KSRQ observed 16 August 2018  06:53 UTC
Temperature: 24.4°C (76°F)
Dewpoint: 23.9°C (75°F) [RH = 97%]
Pressure (altimeter): 30.07 inches Hg (1018.4 mb)
[Sea-level pressure: 1018.3 mb]
Winds: from the E (90 degrees) at 6 MPH (5 knots; 2.6 m/s)
Visibility: 10 or more miles (16+ km)
Ceiling: at least 12,000 feet AGL
Clouds: sky clear below 12,000 feet AGL
Present Weather: automated observation with no human augmentation;
there may or may not be significant weather present at this time
KSRQ 160653Z AUTO 09005KT 10SM CLR 24/24 A3007 RMK AO2 SLP183 T02440239

Conditions at: KSRQ observed 16 August 2018  05:53 UTC
Temperature: 25.0°C (77°F)
Dewpoint: 23.9°C (75°F) [RH = 94%]
Pressure (altimeter): 30.10 inches Hg (1019.4 mb)
[Sea-level pressure: 1019.1 mb]
Winds: from the E (100 degrees) at 5 MPH (4 knots; 2.1 m/s)
Visibility: 10 or more miles (16+ km)
Ceiling: at least 12,000 feet AGL
Clouds: sky clear below 12,000 feet AGL
Present Weather: automated observation with no human augmentation;
there may or may not be significant weather present at this time
KSRQ 160553Z AUTO 10004KT 10SM CLR 25/24 A3010 RMK AO2 LTG DSNT SW SLP191 T02500239 10278 20250 50000

Conditions at: KSRQ observed 16 August 2018  04:53 UTC
Temperature: 25.6°C (78°F)
Dewpoint: 23.3°C (74°F) [RH = 87%]
Pressure (altimeter): 30.12 inches Hg (1020.1 mb)
[Sea-level pressure: 1019.8 mb]
Winds: from the ESE (120 degrees) at 8 MPH (7 knots; 3.6 m/s)
Visibility: 10 or more miles (16+ km)
Ceiling: at least 12,000 feet AGL
Clouds: scattered clouds at 7000 feet AGL
Present Weather: no significant weather observed at this time
KSRQ 160453Z 12007KT 10SM SCT070 26/23 A3012 RMK AO2 LTG DSNT SE SLP198 T02560233 403280228

Conditions at: KSRQ observed 16 August 2018  03:53 UTC
Temperature: 25.6°C (78°F)
Dewpoint: 23.3°C (74°F) [RH = 87%]
Pressure (altimeter): 30.11 inches Hg (1019.7 mb)
[Sea-level pressure: 1019.5 mb]
Winds: from the SE (130 degrees) at 8 MPH (7 knots; 3.6 m/s)
Visibility: 10 or more miles (16+ km)
Ceiling: 6500 feet AGL
Clouds: overcast cloud deck at 6500 feet AGL
Present Weather: no significant weather observed at this time
KSRQ 160353Z 13007KT 10SM OVC065 26/23 A3011 RMK AO2 LTG DSNT SE SLP195 T02560233

Conditions at: KSRQ observed 16 August 2018  02:53 UTC
Temperature: 25.6°C (78°F)
Dewpoint: 23.3°C (74°F) [RH = 87%]
Pressure (altimeter): 30.10 inches Hg (1019.4 mb)
[Sea-level pressure: 1019.1 mb]
Winds: from the E (80 degrees) at 7 MPH (6 knots; 3.1 m/s)
Visibility: 10 or more miles (16+ km)
Ceiling: at least 12,000 feet AGL
Clouds: sky clear below 12,000 feet AGL
Present Weather: no significant weather observed at this time
KSRQ 160253Z 08006KT 10SM CLR 26/23 A3010 RMK AO2 SLP191 T02560233 53013

Conditions at: KSRQ observed 16 August 2018  01:53 UTC
Temperature: 26.1°C (79°F)
Dewpoint: 23.9°C (75°F) [RH = 88%]
Pressure (altimeter): 30.09 inches Hg (1019.0 mb)
[Sea-level pressure: 1018.7 mb]
Winds: from the E (90 degrees) at 8 MPH (7 knots; 3.6 m/s)
Visibility: 10 or more miles (16+ km)
Ceiling: 5000 feet AGL
Clouds: broken clouds at 5000 feet AGL
broken clouds at 6500 feet AGL
Present Weather: no significant weather observed at this time
KSRQ 160153Z 09007KT 10SM BKN050 BKN065 26/24 A3009 RMK AO2 SLP187 T02610239

Conditions at: KSRQ observed 16 August 2018  00:53 UTC
Temperature: 27.8°C (82°F)
Dewpoint: 21.7°C (71°F) [RH = 69%]
Pressure (altimeter): 30.07 inches Hg (1018.4 mb)
[Sea-level pressure: 1018.2 mb]
Winds: calm
Visibility: 10 or more miles (16+ km)
Ceiling: at least 12,000 feet AGL
Clouds: sky clear below 12,000 feet AGL
Present Weather: no significant weather observed at this time
KSRQ 160053Z 00000KT 10SM CLR 28/22 A3007 RMK AO2 SLP182 T02780217

Conditions at: KSRQ observed 15 August 2018  23:53 UTC
Temperature: 27.8°C (82°F)
Dewpoint: 22.2°C (72°F) [RH = 72%]
Pressure (altimeter): 30.06 inches Hg (1018.0 mb)
[Sea-level pressure: 1017.9 mb]
Winds: calm
Visibility: 10 or more miles (16+ km)
Ceiling: at least 12,000 feet AGL
Clouds: sky clear below 12,000 feet AGL
Present Weather: no significant weather observed at this time
KSRQ 152353Z 00000KT 10SM CLR 28/22 A3006 RMK AO2 SLP179 60000 T02780222 10328 20256 53007

Conditions at: KSRQ observed 15 August 2018  22:53 UTC
Temperature: 27.8°C (82°F)
Dewpoint: 22.2°C (72°F) [RH = 72%]
Pressure (altimeter): 30.04 inches Hg (1017.4 mb)
[Sea-level pressure: 1017.0 mb]
Winds: from the NNE (20 degrees) at 5 MPH (4 knots; 2.1 m/s)
Visibility: 10 or more miles (16+ km)
Ceiling: at least 12,000 feet AGL
Clouds: sky clear below 12,000 feet AGL
Present Weather: no significant weather observed at this time
KSRQ 152253Z 02004KT 10SM CLR 28/22 A3004 RMK AO2 SLP170 T02780222

Conditions at: KSRQ observed 15 August 2018  21:53 UTC
Temperature: 26.1°C (79°F)
Dewpoint: 21.7°C (71°F) [RH = 77%]
Pressure (altimeter): 30.04 inches Hg (1017.4 mb)
[Sea-level pressure: 1017.1 mb]
Winds: from the E (100 degrees) at 5 MPH (4 knots; 2.1 m/s)
Visibility: 10 or more miles (16+ km)
Ceiling: at least 12,000 feet AGL
Clouds: few clouds at 3600 feet AGL
few clouds at 7500 feet AGL
scattered clouds at 9000 feet AGL
Present Weather: no significant weather observed at this time
KSRQ 152153Z 10004KT 10SM FEW036 FEW075 SCT090 26/22 A3004 RMK AO2 WSHFT 2113 TSE2059B03E45 SLP171 T02610217

Conditions at: KSRQ observed 15 August 2018  21:51 UTC
Temperature: 26.0°C (79°F)
Dewpoint: 22.0°C (72°F) [RH = 79%]
Pressure (altimeter): 30.04 inches Hg (1017.4 mb)
Winds: from the E (100 degrees) at 7 MPH (6 knots; 3.1 m/s)
Visibility: 10 or more miles (16+ km)
Ceiling: at least 12,000 feet AGL
Clouds: few clouds at 3600 feet AGL
scattered clouds at 7500 feet AGL
scattered clouds at 9000 feet AGL
Present Weather: no significant weather observed at this time
KSRQ 152151Z 10006KT 10SM FEW036 SCT075 SCT090 26/22 A3004 RMK AO2 WSHFT 2113 TSE2059B03E45

Conditions at: KSRQ observed 15 August 2018  21:33 UTC
Temperature: 25.6°C (78°F)
Dewpoint: 21.7°C (71°F) [RH = 79%]
Pressure (altimeter): 30.05 inches Hg (1017.7 mb)
Winds: from the ENE (70 degrees) at 12 MPH (10 knots; 5.2 m/s)
gusting to 26 MPH (23 knots; 12.0 m/s)
Visibility: 10 or more miles (16+ km)
Ceiling: 3400 feet AGL
Clouds: broken clouds at 3400 feet AGL
Present Weather: TS  (thunderstorm)
KSRQ 152133Z 07010G23KT 10SM TS BKN034 26/22 A3005 RMK AO2 WSHFT 2113 LTG DSNT N AND E TSE2059B03 T02560217

Conditions at: KSRQ observed 15 August 2018  20:53 UTC
Temperature: 31.1°C (88°F)
Dewpoint: 23.3°C (74°F) [RH = 63%]
Pressure (altimeter): 30.03 inches Hg (1017.0 mb)
[Sea-level pressure: 1016.8 mb]
Winds: from the W (270 degrees) at 9 MPH (8 knots; 4.2 m/s)
Visibility: 10 or more miles (16+ km)
Ceiling: at least 12,000 feet AGL
Clouds: sky clear below 12,000 feet AGL
Present Weather: TS  (thunderstorm)
KSRQ 152053Z 27008KT 10SM TS CLR 31/23 A3003 RMK AO2 LTG DSNT N-SE TSB44 SLP168 60000 T03110233 57007

Conditions at: KSRQ observed 15 August 2018  20:50 UTC
Temperature: 31.0°C (88°F)
Dewpoint: 23.0°C (73°F) [RH = 63%]
Pressure (altimeter): 30.03 inches Hg (1017.0 mb)
Winds: from the W (270 degrees) at 9 MPH (8 knots; 4.2 m/s)
Visibility: 10 or more miles (16+ km)
Ceiling: at least 12,000 feet AGL
Clouds: sky clear below 12,000 feet AGL
Present Weather: TS  (thunderstorm)
KSRQ 152050Z 27008KT 10SM TS CLR 31/23 A3003 RMK AO2 LTG DSNT N-SE TSB44

Conditions at: KSRQ observed 15 August 2018  20:29 UTC
Temperature: 31.7°C (89°F)
Dewpoint: 23.3°C (74°F) [RH = 61%]
Pressure (altimeter): 30.03 inches Hg (1017.0 mb)
Winds: from the SW (230 degrees) at 10 MPH (9 knots; 4.7 m/s)
Visibility: 10 or more miles (16+ km)
Ceiling: at least 12,000 feet AGL
Clouds: sky clear below 12,000 feet AGL
Present Weather: VCTS  (thunderstorm in vicinity)
KSRQ 152029Z 23009KT 10SM VCTS CLR 32/23 A3003 RMK AO2 LTG DSNT NE AND E T03170233

Conditions at: KSRQ observed 15 August 2018  19:53 UTC
Temperature: 31.7°C (89°F)
Dewpoint: 23.3°C (74°F) [RH = 61%]
Pressure (altimeter): 30.05 inches Hg (1017.7 mb)
[Sea-level pressure: 1017.5 mb]
Winds: from the SW (230 degrees) at 9 MPH (8 knots; 4.2 m/s)
Visibility: 10 or more miles (16+ km)
Ceiling: at least 12,000 feet AGL
Clouds: sky clear below 12,000 feet AGL
Present Weather: no significant weather observed at this time
KSRQ 151953Z 23008KT 10SM CLR 32/23 A3005 RMK AO2 LTG DSNT NE AND E RAE1854 SLP175 P0000 T03170233

Conditions at: KSRQ observed 15 August 2018  19:25 UTC
Temperature: 32.2°C (90°F)
Dewpoint: 24.4°C (76°F) [RH = 64%]
Pressure (altimeter): 30.06 inches Hg (1018.0 mb)
Winds: from the WSW (240 degrees) at 10 MPH (9 knots; 4.7 m/s)
Visibility: 10 or more miles (16+ km)
Ceiling: at least 12,000 feet AGL
Clouds: few clouds at 3100 feet AGL
Present Weather: VCTS  (thunderstorm in vicinity)
KSRQ 151925Z 24009KT 10SM VCTS FEW031 32/24 A3006 RMK AO2 LTG DSNT E RAE1854 P0000 T03220244